createdAt,value
2024-01-22T00:00:38.003Z,2.20
2024-01-22T00:01:37.981Z,2.20
2024-01-22T00:02:37.969Z,2.00
2024-01-22T00:03:37.975Z,1.70
2024-01-22T00:04:37.934Z,1.90
2024-01-22T00:05:37.990Z,1.70
2024-01-22T00:06:38.021Z,1.90
2024-01-22T00:07:37.899Z,2.00
2024-01-22T00:08:37.902Z,1.90
2024-01-22T00:09:37.877Z,1.70
2024-01-22T00:10:37.881Z,1.80
2024-01-22T00:11:37.873Z,1.80
2024-01-22T00:12:37.882Z,1.40
2024-01-22T00:13:37.856Z,2.00
2024-01-22T00:14:37.846Z,1.80
2024-01-22T00:15:37.821Z,1.90
2024-01-22T00:16:37.808Z,1.80
2024-01-22T00:17:37.846Z,1.70
2024-01-22T00:18:37.892Z,1.70
2024-01-22T00:19:37.824Z,1.90
2024-01-22T00:20:37.794Z,1.60
2024-01-22T00:21:37.744Z,1.60
2024-01-22T00:22:37.743Z,1.80
2024-01-22T00:23:37.739Z,1.90
2024-01-22T00:24:37.726Z,1.30
2024-01-22T00:25:37.709Z,1.60
2024-01-22T00:26:37.734Z,1.70
2024-01-22T00:27:37.685Z,1.50
2024-01-22T00:28:37.670Z,1.70
2024-01-22T00:29:37.715Z,1.60
2024-01-22T00:30:37.655Z,1.40
2024-01-22T00:31:37.645Z,1.80
2024-01-22T00:32:37.705Z,1.80
2024-01-22T00:33:37.783Z,1.50
2024-01-22T00:34:37.640Z,1.90
2024-01-22T00:35:37.623Z,1.20
2024-01-22T00:36:37.594Z,1.70
2024-01-22T00:37:37.566Z,1.40
2024-01-22T00:38:37.610Z,1.30
2024-01-22T00:39:37.560Z,1.70
2024-01-22T00:40:37.542Z,1.70
2024-01-22T00:41:37.557Z,1.30
2024-01-22T00:42:37.525Z,1.90
2024-01-22T00:43:37.514Z,1.50
2024-01-22T00:44:37.513Z,1.80
2024-01-22T00:45:37.482Z,1.80
2024-01-22T00:46:37.503Z,1.50
2024-01-22T00:47:37.596Z,1.10
2024-01-22T00:48:37.609Z,1.80
2024-01-22T00:49:37.471Z,1.60
2024-01-22T00:50:37.462Z,1.60
2024-01-22T00:51:37.416Z,2.30
2024-01-22T00:52:37.429Z,1.40
2024-01-22T00:53:37.442Z,1.80
2024-01-22T00:54:37.407Z,1.40
2024-01-22T00:55:37.376Z,1.60
2024-01-22T00:56:37.403Z,1.10
2024-01-22T00:57:37.369Z,1.00
2024-01-22T00:58:37.346Z,1.70
2024-01-22T00:59:37.356Z,1.40
2024-01-22T01:00:37.327Z,0.90
2024-01-22T01:01:37.308Z,1.70
2024-01-22T01:02:37.329Z,1.90
2024-01-22T01:03:37.328Z,1.50
2024-01-22T01:04:37.303Z,1.90
2024-01-22T01:05:37.300Z,1.20
2024-01-22T01:06:37.296Z,1.80
2024-01-22T01:07:37.271Z,1.70
2024-01-22T01:08:37.271Z,1.60
2024-01-22T01:09:37.219Z,1.50
2024-01-22T01:10:37.213Z,1.80
2024-01-22T01:11:37.247Z,1.30
2024-01-22T01:12:37.190Z,1.30
2024-01-22T01:13:37.171Z,1.70
2024-01-22T01:14:37.197Z,1.50
2024-01-22T01:15:37.151Z,1.60
2024-01-22T01:16:37.167Z,1.20
2024-01-22T01:17:37.230Z,1.60
2024-01-22T01:18:37.220Z,1.70
2024-01-22T01:19:37.175Z,1.20
2024-01-22T01:20:37.145Z,1.50
2024-01-22T01:21:37.099Z,1.40
2024-01-22T01:22:37.080Z,1.30
2024-01-22T01:23:37.130Z,1.60
2024-01-22T01:24:37.057Z,1.60
2024-01-22T01:25:37.058Z,1.50
2024-01-22T01:26:37.067Z,1.40
2024-01-22T01:27:37.028Z,1.50
2024-01-22T01:28:37.023Z,1.70
2024-01-22T01:29:37.008Z,1.50
2024-01-22T01:30:37.005Z,1.40
2024-01-22T01:31:36.985Z,1.50
2024-01-22T01:32:37.034Z,1.60
2024-01-22T01:33:37.149Z,1.40
2024-01-22T01:34:37.005Z,1.70
2024-01-22T01:35:36.986Z,1.70
2024-01-22T01:36:36.926Z,1.50
2024-01-22T01:37:36.911Z,1.50
2024-01-22T01:38:36.916Z,1.80
2024-01-22T01:39:36.904Z,1.80
2024-01-22T01:40:36.887Z,1.70
2024-01-22T01:41:36.894Z,1.60
2024-01-22T01:42:36.866Z,1.50
2024-01-22T01:43:36.851Z,1.60
2024-01-22T01:44:36.895Z,1.50
2024-01-22T01:45:36.828Z,1.30
2024-01-22T01:46:36.821Z,1.10
2024-01-22T01:47:36.879Z,1.20
2024-01-22T01:48:36.994Z,1.30
2024-01-22T01:49:36.939Z,1.50
2024-01-22T01:50:36.824Z,1.30
2024-01-22T01:51:36.766Z,1.30
2024-01-22T01:52:36.819Z,1.30
2024-01-22T01:53:36.773Z,1.60
2024-01-22T01:54:36.745Z,1.20
2024-01-22T01:55:36.720Z,1.40
2024-01-22T01:56:36.744Z,1.60
2024-01-22T01:57:37.030Z,1.30
2024-01-22T01:58:36.700Z,1.70
2024-01-22T01:59:36.716Z,1.40
2024-01-22T02:00:36.859Z,1.20
2024-01-22T02:01:36.690Z,1.60
2024-01-22T02:02:36.762Z,1.10
2024-01-22T02:03:36.674Z,1.20
2024-01-22T02:04:36.625Z,1.30
2024-01-22T02:05:36.760Z,1.20
2024-01-22T02:06:36.621Z,1.50
2024-01-22T02:07:36.613Z,1.20
2024-01-22T02:08:36.611Z,1.60
2024-01-22T02:09:36.565Z,1.30
2024-01-22T02:10:36.566Z,1.60
2024-01-22T02:11:36.558Z,1.80
2024-01-22T02:12:36.594Z,1.50
2024-01-22T02:13:36.527Z,1.60
2024-01-22T02:14:36.523Z,1.60
2024-01-22T02:15:36.519Z,1.10
2024-01-22T02:16:36.531Z,1.60
2024-01-22T02:17:36.623Z,1.40
2024-01-22T02:18:36.595Z,1.10
2024-01-22T02:19:36.638Z,1.70
2024-01-22T02:20:36.475Z,1.10
2024-01-22T02:21:36.451Z,1.30
2024-01-22T02:22:36.421Z,2.00
2024-01-22T02:23:36.424Z,1.40
2024-01-22T02:24:36.403Z,1.50
2024-01-22T02:25:36.395Z,1.80
2024-01-22T02:26:37.576Z,1.60
2024-01-22T02:27:36.378Z,1.50
2024-01-22T02:28:36.365Z,2.00
2024-01-22T02:29:36.381Z,2.30
2024-01-22T02:30:36.343Z,1.40
2024-01-22T02:31:36.336Z,2.40
2024-01-22T02:32:36.360Z,2.00
2024-01-22T02:33:36.461Z,2.60
2024-01-22T02:34:36.356Z,2.50
2024-01-22T02:35:36.426Z,2.60
2024-01-22T02:36:36.276Z,2.30
2024-01-22T02:37:36.263Z,2.80
2024-01-22T02:38:36.280Z,2.40
2024-01-22T02:39:36.240Z,2.80
2024-01-22T02:40:36.244Z,2.80
2024-01-22T02:41:36.262Z,3.00
2024-01-22T02:42:36.210Z,3.10
2024-01-22T02:43:36.199Z,2.90
2024-01-22T02:44:36.218Z,2.60
2024-01-22T02:45:36.180Z,2.70
2024-01-22T02:46:36.164Z,2.50
2024-01-22T02:47:36.233Z,2.60
2024-01-22T02:48:36.292Z,2.60
2024-01-22T02:49:36.513Z,2.80
2024-01-22T02:50:36.144Z,2.30
2024-01-22T02:51:36.110Z,2.80
2024-01-22T02:52:36.097Z,2.80
2024-01-22T02:53:36.093Z,2.50
2024-01-22T02:54:36.083Z,2.70
2024-01-22T02:55:36.057Z,2.50
2024-01-22T02:56:36.073Z,2.10
2024-01-22T02:57:36.038Z,2.50
2024-01-22T02:58:36.040Z,2.40
2024-01-22T02:59:36.058Z,2.40
2024-01-22T03:00:36.112Z,2.00
2024-01-22T03:01:35.993Z,2.30
2024-01-22T03:02:36.056Z,1.80
2024-01-22T03:03:35.981Z,2.30
2024-01-22T03:04:36.015Z,1.90
2024-01-22T03:05:36.058Z,1.90
2024-01-22T03:06:36.031Z,1.60
2024-01-22T03:07:35.928Z,1.60
2024-01-22T03:08:35.986Z,1.80
2024-01-22T03:09:35.903Z,1.40
2024-01-22T03:10:35.904Z,1.60
2024-01-22T03:11:35.900Z,1.60
2024-01-22T03:12:35.884Z,1.80
2024-01-22T03:13:35.869Z,1.70
2024-01-22T03:14:35.885Z,1.40
2024-01-22T03:15:35.843Z,1.30
2024-01-22T03:16:35.832Z,1.10
2024-01-22T03:17:35.895Z,1.30
2024-01-22T03:18:35.929Z,1.40
2024-01-22T03:19:35.830Z,1.30
2024-01-22T03:20:35.834Z,1.30
2024-01-22T03:21:35.775Z,1.60
2024-01-22T03:22:35.829Z,1.30
2024-01-22T03:23:35.789Z,1.40
2024-01-22T03:24:35.737Z,1.40
2024-01-22T03:25:35.725Z,1.10
2024-01-22T03:26:35.784Z,1.00
2024-01-22T03:27:35.748Z,1.10
2024-01-22T03:28:35.696Z,1.10
2024-01-22T03:29:35.718Z,1.10
2024-01-22T03:30:35.670Z,1.10
2024-01-22T03:31:35.666Z,1.10
2024-01-22T03:32:35.757Z,1.20
2024-01-22T03:33:35.725Z,0.70
2024-01-22T03:34:35.710Z,1.00
2024-01-22T03:35:35.649Z,1.20
2024-01-22T03:36:35.654Z,0.80
2024-01-22T03:37:35.588Z,1.40
2024-01-22T03:38:35.598Z,1.00
2024-01-22T03:39:35.576Z,1.20
2024-01-22T03:40:35.583Z,1.00
2024-01-22T03:41:35.567Z,0.90
2024-01-22T03:42:35.543Z,1.10
2024-01-22T03:43:35.521Z,1.00
2024-01-22T03:44:35.568Z,1.00
2024-01-22T03:45:35.507Z,1.00
2024-01-22T03:46:35.493Z,0.90
2024-01-22T03:47:35.560Z,1.00
2024-01-22T03:48:35.563Z,1.20
2024-01-22T03:49:35.607Z,1.00
2024-01-22T03:50:35.581Z,1.00
2024-01-22T03:51:35.430Z,0.80
2024-01-22T03:52:35.426Z,1.00
2024-01-22T03:53:35.486Z,0.80
2024-01-22T03:54:35.428Z,1.10
2024-01-22T03:55:35.398Z,1.20
2024-01-22T03:56:35.413Z,0.80
2024-01-22T03:57:35.379Z,1.20
2024-01-22T03:58:35.495Z,1.00
2024-01-22T03:59:35.396Z,0.70
2024-01-22T04:00:35.484Z,0.90
2024-01-22T04:01:35.327Z,1.20
2024-01-22T04:02:35.445Z,1.00
2024-01-22T04:03:35.500Z,1.00
2024-01-22T04:04:35.323Z,1.30
2024-01-22T04:05:35.314Z,1.00
2024-01-22T04:06:35.431Z,0.80
2024-01-22T04:07:35.266Z,1.10
2024-01-22T04:08:35.283Z,1.10
2024-01-22T04:09:35.245Z,1.20
2024-01-22T04:10:35.232Z,1.10
2024-01-22T04:11:35.238Z,0.90
2024-01-22T04:12:35.211Z,1.20
2024-01-22T04:13:35.861Z,1.30
2024-01-22T04:14:35.254Z,1.00
2024-01-22T04:15:35.178Z,1.50
2024-01-22T04:16:35.176Z,1.00
2024-01-22T04:17:35.275Z,1.20
2024-01-22T04:18:35.316Z,1.30
2024-01-22T04:19:35.170Z,1.10
2024-01-22T04:20:35.157Z,1.10
2024-01-22T04:21:35.106Z,1.00
2024-01-22T04:22:35.113Z,1.10
2024-01-22T04:23:35.114Z,0.90
2024-01-22T04:24:38.233Z,0.90
2024-01-22T04:25:35.062Z,0.80
2024-01-22T04:26:35.093Z,1.10
2024-01-22T04:27:35.047Z,1.20
2024-01-22T04:28:35.035Z,1.20
2024-01-22T04:29:35.057Z,1.00
2024-01-22T04:30:36.138Z,1.00
2024-01-22T04:31:35.013Z,1.10
2024-01-22T04:32:35.068Z,0.80
2024-01-22T04:33:35.201Z,1.10
2024-01-22T04:34:34.996Z,1.20
2024-01-22T04:35:35.071Z,1.30
2024-01-22T04:36:34.967Z,1.00
2024-01-22T04:37:34.926Z,0.80
2024-01-22T04:38:35.015Z,0.90
2024-01-22T04:39:34.907Z,1.20
2024-01-22T04:40:34.928Z,1.00
2024-01-22T04:41:35.001Z,1.10
2024-01-22T04:42:34.900Z,1.30
2024-01-22T04:43:34.860Z,0.70
2024-01-22T04:44:35.039Z,1.20
2024-01-22T04:45:34.878Z,1.10
2024-01-22T04:46:34.840Z,1.10
2024-01-22T04:47:34.894Z,1.10
2024-01-22T04:48:34.916Z,0.80
2024-01-22T04:49:34.827Z,1.20
2024-01-22T04:50:34.907Z,0.90
2024-01-22T04:51:34.769Z,0.90
2024-01-22T04:52:34.769Z,0.90
2024-01-22T04:53:34.746Z,1.00
2024-01-22T04:54:34.742Z,1.10
2024-01-22T04:55:36.661Z,1.00
2024-01-22T04:56:34.722Z,1.00
2024-01-22T04:57:34.702Z,1.10
2024-01-22T04:58:34.696Z,1.10
2024-01-22T04:59:34.737Z,1.00
2024-01-22T05:00:34.773Z,1.10
2024-01-22T05:01:34.672Z,1.00
2024-01-22T05:02:34.810Z,1.10
2024-01-22T05:03:34.690Z,1.00
2024-01-22T05:04:34.685Z,1.20
2024-01-22T05:05:34.721Z,1.30
2024-01-22T05:06:34.656Z,1.30
2024-01-22T05:07:34.654Z,1.20
2024-01-22T05:08:34.591Z,0.90
2024-01-22T05:09:34.588Z,1.10
2024-01-22T05:10:34.566Z,1.20
2024-01-22T05:11:34.558Z,1.10
2024-01-22T05:12:34.541Z,1.20
2024-01-22T05:13:34.651Z,1.30
2024-01-22T05:14:34.532Z,1.40
2024-01-22T05:15:34.511Z,1.10
2024-01-22T05:16:34.554Z,1.10
2024-01-22T05:17:34.576Z,1.10
2024-01-22T05:18:34.575Z,1.10
2024-01-22T05:19:34.794Z,1.00
2024-01-22T05:20:34.458Z,1.00
2024-01-22T05:21:34.445Z,1.00
2024-01-22T05:22:34.424Z,1.00
2024-01-22T05:23:34.430Z,1.00
2024-01-22T05:24:34.412Z,0.90
2024-01-22T05:25:34.399Z,1.00
2024-01-22T05:26:34.395Z,1.20
2024-01-22T05:27:34.376Z,1.30
2024-01-22T05:28:34.372Z,1.00
2024-01-22T05:29:34.356Z,1.10
2024-01-22T05:30:34.343Z,0.80
2024-01-22T05:31:34.424Z,1.10
2024-01-22T05:32:34.410Z,1.20
2024-01-22T05:33:34.504Z,1.00
2024-01-22T05:34:34.324Z,1.30
2024-01-22T05:35:34.309Z,1.00
2024-01-22T05:36:34.296Z,1.20
2024-01-22T05:37:34.289Z,1.20
2024-01-22T05:38:34.248Z,1.00
2024-01-22T05:39:34.264Z,1.00
2024-01-22T05:40:34.239Z,0.70
2024-01-22T05:41:34.241Z,0.80
2024-01-22T05:42:34.223Z,1.20
2024-01-22T05:43:34.218Z,1.00
2024-01-22T05:44:34.199Z,1.20
2024-01-22T05:45:34.188Z,1.00
2024-01-22T05:46:34.190Z,0.70
2024-01-22T05:47:34.208Z,0.90
2024-01-22T05:48:34.229Z,1.30
2024-01-22T05:49:34.275Z,1.00
2024-01-22T05:50:34.120Z,0.90
2024-01-22T05:51:34.131Z,1.10
2024-01-22T05:52:34.099Z,1.00
2024-01-22T05:53:34.101Z,1.00
2024-01-22T05:54:34.079Z,1.10
2024-01-22T05:55:34.097Z,1.00
2024-01-22T05:56:34.313Z,1.20
2024-01-22T05:57:34.195Z,1.20
2024-01-22T05:58:34.052Z,1.10
2024-01-22T05:59:34.036Z,1.00
2024-01-22T06:00:34.083Z,1.10
2024-01-22T06:01:34.017Z,1.20
2024-01-22T06:02:33.998Z,1.20
2024-01-22T06:03:34.087Z,1.40
2024-01-22T06:04:33.977Z,1.10
2024-01-22T06:05:33.982Z,1.30
2024-01-22T06:06:34.043Z,1.20
2024-01-22T06:07:33.994Z,1.00
2024-01-22T06:08:33.930Z,1.20
2024-01-22T06:09:34.093Z,1.30
2024-01-22T06:10:33.959Z,1.30
2024-01-22T06:11:33.900Z,1.20
2024-01-22T06:12:33.902Z,0.70
2024-01-22T06:13:39.991Z,1.20
2024-01-22T06:14:33.886Z,1.40
2024-01-22T06:15:33.878Z,1.30
2024-01-22T06:16:33.845Z,1.10
2024-01-22T06:17:33.849Z,1.10
2024-01-22T06:18:33.852Z,1.20
2024-01-22T06:19:33.910Z,1.00
2024-01-22T06:20:35.715Z,1.20
2024-01-22T06:21:33.829Z,1.30
2024-01-22T06:22:33.794Z,1.20
2024-01-22T06:23:33.773Z,1.40
2024-01-22T06:24:33.769Z,1.40
2024-01-22T06:25:33.749Z,1.20
2024-01-22T06:26:33.756Z,1.10
2024-01-22T06:27:33.725Z,1.30
2024-01-22T06:28:33.723Z,1.40
2024-01-22T06:29:33.708Z,1.50
2024-01-22T06:30:33.718Z,1.40
2024-01-22T06:31:33.758Z,1.20
2024-01-22T06:32:33.746Z,1.50
2024-01-22T06:33:33.754Z,1.50
2024-01-22T06:34:33.794Z,1.40
2024-01-22T06:35:33.632Z,1.50
2024-01-22T06:36:33.618Z,1.20
2024-01-22T06:37:33.614Z,1.30
2024-01-22T06:38:33.628Z,1.40
2024-01-22T06:39:33.584Z,1.40
2024-01-22T06:40:33.568Z,1.40
2024-01-22T06:41:33.563Z,1.20
2024-01-22T06:42:38.248Z,1.40
2024-01-22T06:43:33.578Z,1.40
2024-01-22T06:44:33.525Z,1.30
2024-01-22T06:45:33.552Z,1.70
2024-01-22T06:46:33.683Z,1.30
2024-01-22T06:47:33.520Z,1.10
2024-01-22T06:48:33.746Z,1.30
2024-01-22T06:49:33.511Z,1.10
2024-01-22T06:50:33.461Z,1.60
2024-01-22T06:51:38.057Z,1.30
2024-01-22T06:52:33.690Z,1.30
2024-01-22T06:53:33.425Z,1.30
2024-01-22T06:54:33.474Z,1.40
2024-01-22T06:55:33.402Z,1.30
2024-01-22T06:56:33.412Z,1.00
2024-01-22T06:57:33.394Z,1.30
2024-01-22T06:58:33.373Z,1.10
2024-01-22T06:59:33.358Z,1.60
2024-01-22T07:00:33.408Z,1.30
2024-01-22T07:01:33.363Z,1.20
2024-01-22T07:02:33.331Z,0.90
2024-01-22T07:03:33.389Z,1.30
2024-01-22T07:04:33.311Z,1.20
2024-01-22T07:05:33.340Z,1.20
2024-01-22T07:06:33.335Z,1.10
2024-01-22T07:07:33.269Z,1.20
2024-01-22T07:08:33.265Z,1.10
2024-01-22T07:09:33.256Z,1.00
2024-01-22T07:10:33.263Z,1.10
2024-01-22T07:11:33.291Z,1.20
2024-01-22T07:12:33.274Z,1.00
2024-01-22T07:13:33.203Z,1.10
2024-01-22T07:14:33.204Z,1.10
2024-01-22T07:15:33.286Z,1.00
2024-01-22T07:16:33.178Z,1.00
2024-01-22T07:17:33.185Z,1.20
2024-01-22T07:18:33.334Z,1.10
2024-01-22T07:19:33.312Z,1.20
2024-01-22T07:20:33.189Z,0.90
2024-01-22T07:21:33.122Z,1.30
2024-01-22T07:22:33.125Z,1.10
2024-01-22T07:23:33.097Z,1.10
2024-01-22T07:24:33.114Z,1.20
2024-01-22T07:25:33.086Z,1.10
2024-01-22T07:26:33.070Z,1.10
2024-01-22T07:27:33.054Z,1.20
2024-01-22T07:28:33.044Z,1.20
2024-01-22T07:29:33.057Z,1.20
2024-01-22T07:30:33.082Z,1.30
2024-01-22T07:31:33.005Z,1.10
2024-01-22T07:32:33.015Z,1.40
2024-01-22T07:33:33.137Z,1.20
2024-01-22T07:34:33.028Z,1.50
2024-01-22T07:35:32.988Z,1.40
2024-01-22T07:36:32.956Z,1.40
2024-01-22T07:37:32.943Z,1.20
2024-01-22T07:38:32.954Z,1.30
2024-01-22T07:39:32.977Z,1.20
2024-01-22T07:40:32.929Z,1.10
2024-01-22T07:41:32.903Z,1.10
2024-01-22T07:42:32.901Z,1.20
2024-01-22T07:43:32.929Z,1.20
2024-01-22T07:44:32.873Z,1.80
2024-01-22T07:45:32.916Z,1.40
2024-01-22T07:46:32.852Z,1.50
2024-01-22T07:47:32.859Z,1.40
2024-01-22T07:48:32.948Z,1.40
2024-01-22T07:49:32.934Z,1.20
2024-01-22T07:50:32.805Z,1.30
2024-01-22T07:51:32.792Z,1.50
2024-01-22T07:52:32.794Z,1.70
2024-01-22T07:53:32.795Z,1.60
2024-01-22T07:54:32.762Z,1.40
2024-01-22T07:55:32.750Z,1.70
2024-01-22T07:56:32.740Z,1.80
2024-01-22T07:57:32.748Z,1.40
2024-01-22T07:58:32.721Z,1.40
2024-01-22T07:59:32.712Z,1.40
2024-01-22T08:00:32.747Z,1.70
2024-01-22T08:01:32.683Z,1.60
2024-01-22T08:02:32.685Z,1.60
2024-01-22T08:03:32.741Z,1.30
2024-01-22T08:04:32.766Z,1.90
2024-01-22T08:05:32.632Z,1.60
2024-01-22T08:06:32.776Z,1.80
2024-01-22T08:07:32.704Z,2.00
2024-01-22T08:08:32.631Z,1.70
2024-01-22T08:09:32.606Z,1.80
2024-01-22T08:10:32.589Z,1.70
2024-01-22T08:11:32.583Z,1.50
2024-01-22T08:12:32.586Z,1.70
2024-01-22T08:13:32.548Z,1.60
2024-01-22T08:14:32.542Z,1.70
2024-01-22T08:15:32.582Z,1.50
2024-01-22T08:16:32.536Z,1.90
2024-01-22T08:17:32.513Z,2.00
2024-01-22T08:18:32.602Z,1.80
2024-01-22T08:19:32.503Z,1.90
2024-01-22T08:20:33.804Z,1.60
2024-01-22T08:21:32.558Z,1.70
2024-01-22T08:22:32.451Z,1.70
2024-01-22T08:23:32.444Z,1.60
2024-01-22T08:24:32.461Z,1.60
2024-01-22T08:25:32.684Z,2.00
2024-01-22T08:26:34.790Z,1.90
2024-01-22T08:27:32.475Z,1.30
2024-01-22T08:28:32.398Z,1.60
2024-01-22T08:29:32.382Z,1.90
2024-01-22T08:30:32.427Z,1.80
2024-01-22T08:31:32.393Z,1.90
2024-01-22T08:32:32.365Z,1.80
2024-01-22T08:33:32.493Z,2.00
2024-01-22T08:34:32.528Z,2.00
2024-01-22T08:35:32.665Z,1.80
2024-01-22T08:36:32.372Z,2.10
2024-01-22T08:37:32.290Z,1.70
2024-01-22T08:38:32.274Z,1.50
2024-01-22T08:39:32.277Z,1.70
2024-01-22T08:40:32.253Z,1.90
2024-01-22T08:41:32.264Z,1.80
2024-01-22T08:42:32.231Z,1.20
2024-01-22T08:43:32.225Z,1.60
2024-01-22T08:44:32.251Z,1.40
2024-01-22T08:45:32.207Z,1.40
2024-01-22T08:46:32.183Z,1.40
2024-01-22T08:47:32.232Z,1.60
2024-01-22T08:48:32.250Z,1.50
2024-01-22T08:49:33.538Z,1.00
2024-01-22T08:50:32.145Z,1.00
2024-01-22T08:51:32.209Z,1.30
2024-01-22T08:52:32.129Z,1.10
2024-01-22T08:53:32.136Z,1.30
2024-01-22T08:54:32.105Z,1.30
2024-01-22T08:55:32.102Z,1.30
2024-01-22T08:56:32.071Z,1.10
2024-01-22T08:57:32.069Z,1.40
2024-01-22T08:58:32.068Z,1.20
2024-01-22T08:59:32.045Z,1.10
2024-01-22T09:00:32.098Z,1.30
2024-01-22T09:01:32.059Z,1.20
2024-01-22T09:02:32.007Z,1.20
2024-01-22T09:03:32.038Z,1.20
2024-01-22T09:04:32.023Z,1.30
2024-01-22T09:05:32.070Z,1.20
2024-01-22T09:06:31.976Z,1.50
2024-01-22T09:07:31.976Z,1.30
2024-01-22T09:08:31.951Z,1.40
2024-01-22T09:09:31.930Z,1.20
2024-01-22T09:10:31.924Z,1.00
2024-01-22T09:11:31.911Z,1.40
2024-01-22T09:12:31.907Z,1.30
2024-01-22T09:13:31.911Z,1.10
2024-01-22T09:14:31.876Z,1.30
2024-01-22T09:15:31.892Z,1.30
2024-01-22T09:16:31.853Z,1.20
2024-01-22T09:17:31.915Z,1.20
2024-01-22T09:18:31.921Z,1.00
2024-01-22T09:19:31.996Z,1.20
2024-01-22T09:20:31.809Z,1.40
2024-01-22T09:21:31.838Z,1.20
2024-01-22T09:22:31.801Z,1.10
2024-01-22T09:23:31.782Z,1.30
2024-01-22T09:24:31.765Z,1.60
2024-01-22T09:25:31.761Z,1.50
2024-01-22T09:26:31.754Z,1.30
2024-01-22T09:27:31.748Z,1.30
2024-01-22T09:28:31.736Z,1.30
2024-01-22T09:29:31.734Z,1.20
2024-01-22T09:30:31.771Z,1.50
2024-01-22T09:31:31.738Z,1.50
2024-01-22T09:32:31.728Z,1.60
2024-01-22T09:33:31.801Z,2.00
2024-01-22T09:34:31.711Z,1.50
2024-01-22T09:35:31.671Z,1.30
2024-01-22T09:36:31.667Z,1.30
2024-01-22T09:37:31.652Z,1.70
2024-01-22T09:38:31.651Z,1.60
2024-01-22T09:39:31.615Z,1.50
2024-01-22T09:40:31.635Z,1.20
2024-01-22T09:41:31.582Z,1.10
2024-01-22T09:42:31.605Z,1.70
2024-01-22T09:43:31.569Z,1.60
2024-01-22T09:44:31.576Z,1.20
2024-01-22T09:45:31.561Z,1.20
2024-01-22T09:46:31.667Z,1.00
2024-01-22T09:47:31.643Z,1.40
2024-01-22T09:48:31.781Z,1.10
2024-01-22T09:49:31.831Z,1.20
2024-01-22T09:50:31.599Z,0.90
2024-01-22T09:51:31.654Z,1.30
2024-01-22T09:52:31.613Z,1.00
2024-01-22T09:53:31.621Z,1.30
2024-01-22T09:54:31.533Z,1.20
2024-01-22T09:55:31.443Z,0.70
2024-01-22T09:56:31.416Z,1.10
2024-01-22T09:57:31.425Z,1.20
2024-01-22T09:58:31.422Z,1.10
2024-01-22T09:59:31.602Z,1.10
2024-01-22T10:00:31.485Z,0.80
2024-01-22T10:01:31.452Z,1.10
2024-01-22T10:02:31.347Z,0.70
2024-01-22T10:03:31.535Z,1.10
2024-01-22T10:04:31.347Z,1.10
2024-01-22T10:05:31.338Z,1.20
2024-01-22T10:06:31.407Z,1.00
2024-01-22T10:07:31.325Z,0.90
2024-01-22T10:08:31.300Z,1.10
2024-01-22T10:09:31.382Z,1.30
2024-01-22T10:10:31.263Z,0.80
2024-01-22T10:11:31.256Z,0.60
2024-01-22T10:12:31.282Z,1.10
2024-01-22T10:13:31.272Z,1.20
2024-01-22T10:14:31.246Z,0.90
2024-01-22T10:15:31.294Z,1.00
2024-01-22T10:16:31.195Z,1.00
2024-01-22T10:17:31.249Z,1.00
2024-01-22T10:18:31.302Z,0.90
2024-01-22T10:19:31.285Z,1.10
2024-01-22T10:20:31.174Z,1.10
2024-01-22T10:21:31.174Z,1.50
2024-01-22T10:22:31.141Z,1.00
2024-01-22T10:23:31.140Z,1.50
2024-01-22T10:24:31.114Z,1.00
2024-01-22T10:25:31.115Z,0.80
2024-01-22T10:26:31.096Z,1.60
2024-01-22T10:27:31.180Z,1.10
2024-01-22T10:28:32.017Z,1.20
2024-01-22T10:29:31.068Z,1.10
2024-01-22T10:30:31.088Z,1.00
2024-01-22T10:31:31.088Z,1.30
2024-01-22T10:32:31.042Z,1.00
2024-01-22T10:33:31.222Z,1.00
2024-01-22T10:34:31.020Z,1.00
2024-01-22T10:35:30.989Z,1.00
2024-01-22T10:36:31.098Z,1.10
2024-01-22T10:37:30.976Z,0.80
2024-01-22T10:38:30.951Z,1.20
2024-01-22T10:39:30.994Z,1.40
2024-01-22T10:40:30.944Z,1.40
2024-01-22T10:41:30.940Z,1.60
2024-01-22T10:42:30.945Z,1.50
2024-01-22T10:43:31.513Z,1.30
2024-01-22T10:44:30.915Z,1.20
2024-01-22T10:45:31.113Z,1.20
2024-01-22T10:46:30.866Z,1.60
2024-01-22T10:47:30.903Z,1.40
2024-01-22T10:48:38.547Z,1.80
2024-01-22T10:49:30.960Z,1.50
2024-01-22T10:50:30.922Z,1.30
2024-01-22T10:51:30.831Z,1.50
2024-01-22T10:52:30.801Z,1.50
2024-01-22T10:53:30.793Z,1.60
2024-01-22T10:54:30.859Z,1.60
2024-01-22T10:55:30.795Z,1.30
2024-01-22T10:56:30.758Z,1.60
2024-01-22T10:57:30.748Z,1.60
2024-01-22T10:58:31.336Z,1.40
2024-01-22T11:00:25.334Z,1.40
2024-01-22T11:01:27.988Z,1.70
2024-01-22T11:02:26.212Z,1.70
2024-01-22T11:03:26.318Z,1.50
2024-01-22T11:04:26.266Z,1.50
2024-01-22T11:05:26.326Z,1.40
2024-01-22T11:06:27.228Z,1.50
2024-01-22T11:07:26.181Z,1.80
2024-01-22T11:08:26.178Z,1.60
2024-01-22T11:09:26.285Z,1.70
2024-01-22T11:10:26.136Z,1.50
2024-01-22T11:11:26.142Z,1.50
2024-01-22T11:12:26.135Z,1.60
2024-01-22T11:13:26.119Z,1.40
2024-01-22T11:14:26.093Z,1.40
2024-01-22T11:15:26.164Z,1.80
2024-01-22T11:16:26.101Z,1.50
2024-01-22T11:17:26.052Z,1.50
2024-01-22T11:18:26.153Z,1.50
2024-01-22T11:19:26.249Z,1.30
2024-01-22T11:20:26.028Z,1.30
2024-01-22T11:21:26.008Z,1.30
2024-01-22T11:22:26.007Z,2.00
2024-01-22T11:23:25.991Z,1.80
2024-01-22T11:24:26.101Z,1.30
2024-01-22T11:25:25.966Z,1.40
2024-01-22T11:26:25.958Z,1.50
2024-01-22T11:27:26.021Z,1.60
2024-01-22T11:28:25.935Z,1.80
2024-01-22T11:29:25.933Z,1.40
2024-01-22T11:30:25.916Z,1.60
2024-01-22T11:31:25.918Z,1.80
2024-01-22T11:32:25.946Z,1.70
2024-01-22T11:33:25.945Z,1.50
2024-01-22T11:34:25.884Z,1.70
2024-01-22T11:35:25.964Z,1.60
2024-01-22T11:36:26.001Z,1.70
2024-01-22T11:37:25.823Z,1.40
2024-01-22T11:38:25.815Z,1.40
2024-01-22T11:39:25.837Z,1.70
2024-01-22T11:40:25.794Z,1.70
2024-01-22T11:41:25.788Z,2.20
2024-01-22T11:42:25.808Z,1.70
2024-01-22T11:43:25.759Z,0.80
2024-01-22T11:44:25.863Z,0.60
2024-01-22T11:45:30.222Z,0.90
2024-01-22T11:46:25.833Z,0.80
2024-01-22T11:47:25.733Z,0.60
2024-01-22T11:48:26.002Z,0.90
2024-01-22T11:49:25.813Z,0.80
2024-01-22T11:50:25.688Z,1.10
2024-01-22T11:51:25.749Z,0.70
2024-01-22T11:52:25.764Z,1.00
2024-01-22T11:53:25.640Z,0.90
2024-01-22T11:54:25.681Z,0.80
2024-01-22T11:55:25.626Z,0.60
2024-01-22T11:56:25.613Z,0.70
2024-01-22T11:57:25.658Z,0.60
2024-01-22T11:58:25.594Z,1.10
2024-01-22T11:59:25.582Z,0.60
2024-01-22T12:00:25.624Z,0.70
2024-01-22T12:01:25.555Z,0.90
2024-01-22T12:02:25.564Z,0.80
2024-01-22T12:03:25.635Z,0.80
2024-01-22T12:04:25.560Z,0.80
2024-01-22T12:05:25.521Z,0.80
2024-01-22T12:06:25.533Z,1.00
2024-01-22T12:07:25.493Z,1.00
2024-01-22T12:08:25.499Z,0.80
2024-01-22T12:09:25.485Z,0.60
2024-01-22T12:10:25.463Z,1.10
2024-01-22T12:11:25.447Z,0.90
2024-01-22T12:12:25.470Z,0.80
2024-01-22T12:13:25.506Z,1.00
2024-01-22T12:14:25.429Z,0.60
2024-01-22T12:15:25.686Z,1.00
2024-01-22T12:16:25.401Z,0.80
2024-01-22T12:17:25.424Z,1.00
2024-01-22T12:18:25.496Z,0.90
2024-01-22T12:19:25.407Z,1.10
2024-01-22T12:20:25.434Z,1.20
2024-01-22T12:21:25.390Z,0.90
2024-01-22T12:22:25.352Z,1.30
2024-01-22T12:23:25.320Z,1.80
2024-01-22T12:24:25.360Z,1.20
2024-01-22T12:25:25.289Z,1.20
2024-01-22T12:26:25.283Z,1.20
2024-01-22T12:27:25.333Z,0.90
2024-01-22T12:28:25.271Z,1.70
2024-01-22T12:29:25.248Z,1.20
2024-01-22T12:30:25.401Z,1.90
2024-01-22T12:31:25.255Z,1.80
2024-01-22T12:32:25.302Z,1.30
2024-01-22T12:33:26.014Z,1.50
2024-01-22T12:34:25.246Z,1.60
2024-01-22T12:35:25.337Z,1.30
2024-01-22T12:36:25.244Z,1.50
2024-01-22T12:37:25.187Z,1.90
2024-01-22T12:38:25.761Z,1.20
2024-01-22T12:39:25.197Z,1.60
2024-01-22T12:40:25.125Z,1.80
2024-01-22T12:41:25.152Z,1.70
2024-01-22T12:42:25.167Z,1.80
2024-01-22T12:43:25.178Z,1.70
2024-01-22T12:44:25.088Z,1.60
2024-01-22T12:45:25.208Z,1.40
2024-01-22T12:46:25.085Z,1.50
2024-01-22T12:47:25.094Z,1.90
2024-01-22T12:48:25.132Z,1.80
2024-01-22T12:49:25.149Z,2.10
2024-01-22T12:50:25.036Z,1.90
2024-01-22T12:51:25.078Z,1.90
2024-01-22T12:52:24.995Z,1.70
2024-01-22T12:53:24.983Z,1.90
2024-01-22T12:54:25.078Z,2.20
2024-01-22T12:55:25.058Z,1.90
2024-01-22T12:56:24.986Z,2.30
2024-01-22T12:57:25.055Z,1.70
2024-01-22T12:58:24.954Z,2.10
2024-01-22T12:59:24.920Z,2.60
2024-01-22T13:00:24.938Z,2.60
2024-01-22T13:01:24.943Z,2.50
2024-01-22T13:02:24.887Z,2.20
2024-01-22T13:03:24.989Z,2.60
2024-01-22T13:04:24.890Z,2.00
2024-01-22T13:05:24.887Z,1.80
2024-01-22T13:06:24.895Z,2.60
2024-01-22T13:07:25.014Z,2.70
2024-01-22T13:08:24.855Z,2.60
2024-01-22T13:09:24.880Z,3.40
2024-01-22T13:10:24.842Z,2.80
2024-01-22T13:11:24.783Z,2.70
2024-01-22T13:12:24.861Z,2.80
2024-01-22T13:13:24.762Z,3.40
2024-01-22T13:14:25.973Z,2.80
2024-01-22T13:15:24.900Z,2.40
2024-01-22T13:16:24.789Z,2.80
2024-01-22T13:17:24.805Z,2.40
2024-01-22T13:18:24.896Z,2.60
2024-01-22T13:19:24.857Z,2.90